createdAt,value
2022-10-06T00:00:09.696Z,8.27
2022-10-06T00:02:37.863Z,8.24
2022-10-06T00:05:06.185Z,8.30
2022-10-06T00:07:35.938Z,8.35
2022-10-06T00:10:04.556Z,8.33
2022-10-06T00:12:40.032Z,8.28
2022-10-06T00:15:08.710Z,8.34
2022-10-06T00:17:36.883Z,8.31
2022-10-06T00:20:05.273Z,8.38
2022-10-06T00:22:36.475Z,8.35
2022-10-06T00:25:05.161Z,8.42
2022-10-06T00:27:36.754Z,8.40
2022-10-06T00:30:05.069Z,8.26
2022-10-06T00:32:33.378Z,8.36
2022-10-06T00:35:01.575Z,8.31
2022-10-06T00:37:30.068Z,8.35
2022-10-06T00:39:59.643Z,8.38
2022-10-06T00:42:29.552Z,8.37
2022-10-06T00:44:59.202Z,8.34
2022-10-06T00:47:30.244Z,8.32
2022-10-06T00:49:58.418Z,8.38
2022-10-06T00:52:28.898Z,8.43
2022-10-06T00:54:57.433Z,8.31
2022-10-06T00:57:27.242Z,8.32
2022-10-06T00:59:55.560Z,8.33
2022-10-06T01:02:25.087Z,8.40
2022-10-06T01:04:56.016Z,8.39
2022-10-06T01:07:25.697Z,8.35
2022-10-06T01:09:54.378Z,8.36
2022-10-06T01:12:22.536Z,8.31
2022-10-06T01:14:52.391Z,8.32
2022-10-06T01:17:22.270Z,8.26
2022-10-06T01:19:52.092Z,8.26
2022-10-06T01:22:27.548Z,8.28
2022-10-06T01:24:55.594Z,8.34
2022-10-06T01:27:24.481Z,8.30
2022-10-06T01:29:53.957Z,8.32
2022-10-06T01:32:22.410Z,8.38
2022-10-06T01:34:50.448Z,8.33
2022-10-06T01:37:18.453Z,8.37
2022-10-06T01:39:47.971Z,8.46
2022-10-06T01:42:15.989Z,8.36
2022-10-06T01:44:44.053Z,8.46
2022-10-06T01:47:12.152Z,8.40
2022-10-06T01:49:40.604Z,8.44
2022-10-06T01:52:09.453Z,8.47
2022-10-06T01:54:37.548Z,8.47
2022-10-06T01:57:08.585Z,8.35
2022-10-06T01:59:36.598Z,8.33
2022-10-06T02:02:04.743Z,8.45
2022-10-06T02:04:32.947Z,8.49
2022-10-06T02:07:00.934Z,8.58
2022-10-06T02:09:28.896Z,8.63
2022-10-06T02:11:57.091Z,8.70
2022-10-06T02:14:26.535Z,8.71
2022-10-06T02:16:54.575Z,8.74
2022-10-06T02:19:22.654Z,8.78
2022-10-06T02:21:50.681Z,8.79
2022-10-06T02:24:19.256Z,8.82
2022-10-06T02:26:47.246Z,8.91
2022-10-06T02:29:15.205Z,8.98
2022-10-06T02:31:45.063Z,8.98
2022-10-06T02:34:13.216Z,8.99
2022-10-06T02:36:41.205Z,9.04
2022-10-06T02:39:09.176Z,8.98
2022-10-06T02:41:37.504Z,8.98
2022-10-06T02:44:05.523Z,8.99
2022-10-06T02:46:33.562Z,9.05
2022-10-06T02:49:03.093Z,9.04
2022-10-06T02:51:31.663Z,9.06
2022-10-06T02:53:59.594Z,9.08
2022-10-06T02:56:28.181Z,9.11
2022-10-06T02:58:58.457Z,8.99
2022-10-06T03:01:27.898Z,9.00
2022-10-06T03:03:56.221Z,8.96
2022-10-06T03:06:26.417Z,8.94
2022-10-06T03:08:55.579Z,9.00
2022-10-06T03:11:25.121Z,8.94
2022-10-06T03:13:53.774Z,9.01
2022-10-06T03:16:23.222Z,9.08
2022-10-06T03:18:52.495Z,9.09
2022-10-06T03:21:21.008Z,9.13
2022-10-06T03:23:51.752Z,9.06
2022-10-06T03:26:21.086Z,9.08
2022-10-06T03:28:49.137Z,9.15
2022-10-06T03:31:18.113Z,9.20
2022-10-06T03:33:46.131Z,9.15
2022-10-06T03:36:15.302Z,9.18
2022-10-06T03:38:43.614Z,9.11
2022-10-06T03:41:14.200Z,9.10
2022-10-06T03:43:43.910Z,9.13
2022-10-06T03:46:13.255Z,9.15
2022-10-06T03:48:41.570Z,9.13
2022-10-06T03:51:12.541Z,9.14
2022-10-06T03:53:41.071Z,9.15
2022-10-06T03:56:10.297Z,9.16
2022-10-06T03:58:41.111Z,9.20
2022-10-06T04:01:10.162Z,9.16
2022-10-06T04:03:38.375Z,9.21
2022-10-06T04:06:07.497Z,9.27
2022-10-06T04:08:36.616Z,9.30
2022-10-06T04:11:08.495Z,9.40
2022-10-06T04:13:36.578Z,9.42
2022-10-06T04:16:13.072Z,9.44
2022-10-06T04:18:41.643Z,9.42
2022-10-06T04:21:09.816Z,9.44
2022-10-06T04:23:38.081Z,9.44
2022-10-06T04:26:09.591Z,9.46
2022-10-06T04:28:38.354Z,9.43
2022-10-06T04:31:07.261Z,9.48
2022-10-06T04:33:36.831Z,9.52
2022-10-06T04:36:06.002Z,9.59
2022-10-06T04:38:34.757Z,9.63
2022-10-06T04:41:07.303Z,9.69
2022-10-06T04:43:35.485Z,9.63
2022-10-06T04:46:13.287Z,9.68
2022-10-06T04:48:53.431Z,9.73
2022-10-06T04:51:22.330Z,9.67
2022-10-06T04:53:50.734Z,9.73
2022-10-06T04:56:19.495Z,9.73
2022-10-06T04:58:48.614Z,9.80
2022-10-06T05:01:18.126Z,9.88
2022-10-06T05:03:46.686Z,9.91
2022-10-06T05:06:17.325Z,9.88
2022-10-06T05:08:48.663Z,9.93
2022-10-06T05:11:20.286Z,9.91
2022-10-06T05:13:51.172Z,9.95
2022-10-06T05:16:20.013Z,9.96
2022-10-06T05:18:48.773Z,9.95
2022-10-06T05:21:19.037Z,9.99
2022-10-06T05:23:47.027Z,10.05
2022-10-06T05:26:16.622Z,10.09
2022-10-06T05:28:45.111Z,10.11
2022-10-06T05:31:15.352Z,10.15
2022-10-06T05:33:43.883Z,10.18
2022-10-06T05:36:13.544Z,10.13
2022-10-06T05:38:44.424Z,10.15
2022-10-06T05:41:13.625Z,10.25
2022-10-06T05:43:42.727Z,10.26
2022-10-06T05:46:17.622Z,10.28
2022-10-06T05:48:46.991Z,10.29
2022-10-06T05:51:15.702Z,10.38
2022-10-06T05:53:45.732Z,10.46
2022-10-06T05:56:15.323Z,10.61
2022-10-06T05:58:44.417Z,10.78
2022-10-06T06:01:13.789Z,10.87
2022-10-06T06:03:43.469Z,11.02
2022-10-06T06:06:19.108Z,11.05
2022-10-06T06:08:48.941Z,11.06
2022-10-06T06:11:17.407Z,11.00
2022-10-06T06:13:46.377Z,11.02
2022-10-06T06:16:14.137Z,10.99
2022-10-06T06:18:42.950Z,11.10
2022-10-06T06:21:11.984Z,11.12
2022-10-06T06:23:41.143Z,11.14
2022-10-06T06:26:12.268Z,11.09
2022-10-06T06:28:41.821Z,11.08
2022-10-06T06:31:10.895Z,11.11
2022-10-06T06:33:40.152Z,11.07
2022-10-06T06:36:13.924Z,11.01
2022-10-06T06:38:42.314Z,10.97
2022-10-06T06:41:19.072Z,11.08
2022-10-06T06:43:47.655Z,11.14
2022-10-06T06:46:18.968Z,11.18
2022-10-06T06:48:47.965Z,11.08
2022-10-06T06:51:17.524Z,10.96
2022-10-06T06:53:46.126Z,11.03
2022-10-06T06:56:15.251Z,11.12
2022-10-06T06:58:49.056Z,11.19
2022-10-06T07:01:18.412Z,11.22
2022-10-06T07:12:15.260Z,11.97
2022-10-06T07:14:59.656Z,12.01
2022-10-06T07:24:03.565Z,11.63
2022-10-06T07:26:32.429Z,11.88
2022-10-06T07:29:01.830Z,12.05
2022-10-06T07:31:33.635Z,12.12
2022-10-06T07:34:02.932Z,12.10
2022-10-06T07:36:31.565Z,12.02
2022-10-06T07:38:59.713Z,11.96
2022-10-06T07:41:28.606Z,12.04
2022-10-06T07:43:56.648Z,12.01
2022-10-06T07:46:25.987Z,12.19
2022-10-06T07:48:56.435Z,12.18
2022-10-06T07:57:24.195Z,12.55
2022-10-06T08:00:03.480Z,12.61
2022-10-06T08:05:23.895Z,12.74
2022-10-06T08:14:07.880Z,12.77
2022-10-06T08:16:42.504Z,12.86
2022-10-06T08:25:05.153Z,12.51
2022-10-06T08:33:25.120Z,12.52
2022-10-06T08:47:50.872Z,12.62
2022-10-06T09:02:45.722Z,12.66
2022-10-06T09:05:15.044Z,12.63
2022-10-06T09:07:48.726Z,12.61
2022-10-06T09:10:28.199Z,12.51
2022-10-06T09:12:57.453Z,12.33
2022-10-06T09:15:31.269Z,12.22
2022-10-06T09:18:02.894Z,12.30
2022-10-06T09:20:34.214Z,12.36
2022-10-06T09:23:03.262Z,12.39
2022-10-06T09:25:31.378Z,12.46
2022-10-06T09:28:00.457Z,12.54
2022-10-06T09:30:28.864Z,12.65
2022-10-06T09:33:00.358Z,12.74
2022-10-06T09:35:30.557Z,12.80
2022-10-06T09:38:00.691Z,12.81
2022-10-06T09:40:38.333Z,12.95
2022-10-06T09:43:16.690Z,13.03
2022-10-06T09:45:44.770Z,13.13
2022-10-06T09:48:13.674Z,13.27
2022-10-06T09:50:43.192Z,13.40
2022-10-06T09:53:18.797Z,13.52
2022-10-06T09:55:54.767Z,13.55
2022-10-06T09:58:24.781Z,13.61
2022-10-06T10:00:57.227Z,13.76
2022-10-06T10:03:27.449Z,13.96
2022-10-06T10:05:57.087Z,14.26
2022-10-06T10:08:26.285Z,14.62
2022-10-06T10:11:33.421Z,15.02
2022-10-06T10:14:01.636Z,15.43
2022-10-06T10:16:34.857Z,15.74
2022-10-06T10:19:04.442Z,15.99
2022-10-06T10:21:34.760Z,16.10
2022-10-06T10:24:05.303Z,16.31
2022-10-06T10:26:45.883Z,16.48
2022-10-06T10:29:33.133Z,16.99
2022-10-06T10:32:05.536Z,17.24
2022-10-06T10:34:43.745Z,17.38
2022-10-06T10:37:15.304Z,18.29
2022-10-06T10:39:45.714Z,18.26
2022-10-06T10:42:16.738Z,18.20
2022-10-06T10:44:49.940Z,17.94
2022-10-06T10:47:21.969Z,17.46
2022-10-06T10:49:54.257Z,17.09
2022-10-06T10:52:27.562Z,16.67
2022-10-06T10:55:03.745Z,16.20
2022-10-06T10:57:37.293Z,15.47
2022-10-06T11:00:07.719Z,15.23
2022-10-06T11:02:38.429Z,15.09
2022-10-06T11:05:13.796Z,15.09
2022-10-06T11:07:46.825Z,15.20
2022-10-06T11:10:18.905Z,15.25
2022-10-06T11:12:59.143Z,15.27
2022-10-06T11:15:33.018Z,15.29
2022-10-06T11:18:06.125Z,15.30
2022-10-06T11:20:42.938Z,15.25
2022-10-06T11:23:25.642Z,15.17
2022-10-06T11:25:58.608Z,15.08
2022-10-06T11:28:32.368Z,15.12
2022-10-06T11:31:02.618Z,15.09
2022-10-06T11:33:34.085Z,14.99
2022-10-06T11:36:03.783Z,14.79
2022-10-06T11:38:37.876Z,14.77
2022-10-06T11:41:10.392Z,14.64
2022-10-06T11:43:42.437Z,14.47
2022-10-06T11:46:18.339Z,14.44
2022-10-06T11:48:46.905Z,14.45
2022-10-06T11:51:31.118Z,14.48
2022-10-06T11:54:00.703Z,14.53
2022-10-06T11:56:46.834Z,14.60
2022-10-06T11:59:31.477Z,14.65
2022-10-06T12:02:02.679Z,14.70
2022-10-06T12:04:30.753Z,14.68
2022-10-06T12:07:02.191Z,14.73
2022-10-06T12:09:33.073Z,14.73
2022-10-06T12:12:01.864Z,14.71
2022-10-06T12:17:27.549Z,14.78
2022-10-06T12:19:58.936Z,14.65
2022-10-06T12:22:30.164Z,14.68
2022-10-06T12:25:05.292Z,14.56
2022-10-06T12:27:39.501Z,14.49
2022-10-06T12:30:17.886Z,14.46
2022-10-06T12:32:54.305Z,14.54
2022-10-06T12:35:40.191Z,14.58
2022-10-06T12:38:28.698Z,14.58
2022-10-06T12:40:59.742Z,14.61
2022-10-06T12:43:29.291Z,14.56
2022-10-06T12:45:59.488Z,14.59
2022-10-06T12:48:31.243Z,14.64
2022-10-06T12:51:03.345Z,14.57
2022-10-06T12:53:34.251Z,14.40
2022-10-06T12:56:05.105Z,14.26
2022-10-06T12:58:34.182Z,14.18
2022-10-06T13:01:02.649Z,14.07
2022-10-06T13:03:31.034Z,13.95
2022-10-06T13:06:00.042Z,13.95
2022-10-06T13:08:29.492Z,13.92
2022-10-06T13:11:12.243Z,13.80
2022-10-06T13:13:46.806Z,13.75
2022-10-06T13:16:14.931Z,13.68
2022-10-06T13:18:43.128Z,13.79
2022-10-06T13:21:14.098Z,13.77
2022-10-06T13:23:42.093Z,13.67
2022-10-06T13:26:19.317Z,13.60
2022-10-06T13:28:49.724Z,13.46
2022-10-06T13:31:22.509Z,13.48
2022-10-06T13:33:52.439Z,13.41
2022-10-06T13:36:23.657Z,13.37
2022-10-06T13:38:56.516Z,13.43
2022-10-06T13:41:30.157Z,13.49
2022-10-06T13:44:01.491Z,13.56
2022-10-06T13:46:31.037Z,13.47
2022-10-06T13:49:03.545Z,13.55
2022-10-06T13:51:32.342Z,13.62
2022-10-06T13:54:02.273Z,13.57
2022-10-06T13:56:35.954Z,13.64
2022-10-06T13:59:27.467Z,13.66
2022-10-06T14:01:55.693Z,13.66
2022-10-06T14:04:23.982Z,13.58
2022-10-06T14:06:53.484Z,13.53
2022-10-06T14:09:24.027Z,13.41
2022-10-06T14:11:52.669Z,13.43
2022-10-06T14:14:22.277Z,13.47
2022-10-06T14:16:51.816Z,13.43
2022-10-06T14:19:34.234Z,13.41
2022-10-06T14:22:02.643Z,13.28
2022-10-06T14:24:34.203Z,13.32
2022-10-06T14:27:02.805Z,13.20
2022-10-06T14:29:34.292Z,13.26
2022-10-06T14:32:09.083Z,13.25
2022-10-06T14:34:37.068Z,13.26
2022-10-06T14:37:05.026Z,13.22
2022-10-06T14:39:33.030Z,13.25
2022-10-06T14:42:01.086Z,13.25
2022-10-06T14:44:29.301Z,13.14
2022-10-06T14:46:59.101Z,13.13
2022-10-06T14:49:27.183Z,13.15
2022-10-06T14:51:56.050Z,13.15
2022-10-06T14:54:24.416Z,13.19
2022-10-06T14:56:53.438Z,13.17
2022-10-06T14:59:22.094Z,13.12
2022-10-06T15:01:50.167Z,13.14
2022-10-06T15:04:20.593Z,13.16
2022-10-06T15:07:06.315Z,13.21
2022-10-06T15:09:34.530Z,13.21
2022-10-06T15:12:03.234Z,13.19
2022-10-06T15:14:31.320Z,13.20
2022-10-06T15:17:00.498Z,13.16
2022-10-06T15:19:30.040Z,13.13
2022-10-06T15:21:58.293Z,13.12
2022-10-06T15:24:26.378Z,13.06
2022-10-06T15:27:11.689Z,13.08
2022-10-06T15:29:39.888Z,13.10
2022-10-06T15:32:08.381Z,13.10
2022-10-06T15:34:38.277Z,13.07
2022-10-06T15:37:06.824Z,13.05
2022-10-06T15:39:37.249Z,13.03
2022-10-06T15:42:06.374Z,12.97
2022-10-06T15:44:35.790Z,13.02
2022-10-06T15:47:05.503Z,13.00
2022-10-06T15:49:38.279Z,13.00
2022-10-06T15:52:08.411Z,13.03
2022-10-06T15:54:38.063Z,13.02
2022-10-06T15:57:08.776Z,12.96
2022-10-06T15:59:37.264Z,12.92
2022-10-06T16:02:07.879Z,12.85
2022-10-06T16:04:48.757Z,12.89
2022-10-06T16:07:19.195Z,12.89
2022-10-06T16:09:47.993Z,12.89
2022-10-06T16:12:17.590Z,12.92
2022-10-06T16:14:45.936Z,12.90
2022-10-06T16:17:14.213Z,12.92
2022-10-06T16:19:42.309Z,12.93
2022-10-06T16:22:11.652Z,12.93
2022-10-06T16:24:41.339Z,12.96
2022-10-06T16:27:11.842Z,12.95
2022-10-06T16:29:39.857Z,12.83
2022-10-06T16:32:07.946Z,12.84
2022-10-06T16:34:36.030Z,12.80
2022-10-06T16:37:04.160Z,12.87
2022-10-06T16:39:32.157Z,12.89
2022-10-06T16:42:01.478Z,12.87
2022-10-06T16:44:29.537Z,12.88
2022-10-06T16:46:57.525Z,12.87
2022-10-06T16:49:27.413Z,12.89
2022-10-06T16:51:55.428Z,12.88
2022-10-06T16:54:23.475Z,12.85
2022-10-06T16:56:54.425Z,12.87
2022-10-06T16:59:26.133Z,12.81
2022-10-06T17:01:54.373Z,12.84
2022-10-06T17:04:23.370Z,12.78
2022-10-06T17:06:52.319Z,12.78
2022-10-06T17:09:21.598Z,12.80
2022-10-06T17:11:50.269Z,12.76
2022-10-06T17:14:18.701Z,12.74
2022-10-06T17:16:49.413Z,12.79
2022-10-06T17:19:18.609Z,12.82
2022-10-06T17:21:49.527Z,12.76
2022-10-06T17:24:19.941Z,12.77
2022-10-06T17:26:48.549Z,12.72
2022-10-06T17:29:18.972Z,12.74
2022-10-06T17:31:49.681Z,12.70
2022-10-06T17:34:21.153Z,12.74
2022-10-06T17:36:51.910Z,12.79
2022-10-06T17:39:21.717Z,12.77
2022-10-06T17:41:50.641Z,12.74
2022-10-06T17:44:23.163Z,12.72
2022-10-06T17:46:56.581Z,12.67
2022-10-06T17:49:25.370Z,12.77
2022-10-06T17:51:54.023Z,12.73
2022-10-06T17:54:23.512Z,12.75
2022-10-06T17:56:52.549Z,12.79
2022-10-06T17:59:22.336Z,12.79
2022-10-06T18:01:51.914Z,12.83
2022-10-06T18:04:21.683Z,12.85
2022-10-06T18:06:49.744Z,12.78
2022-10-06T18:09:18.512Z,12.82
2022-10-06T18:11:48.559Z,12.80
2022-10-06T18:14:17.371Z,12.75
2022-10-06T18:16:46.685Z,12.70
2022-10-06T18:19:16.193Z,12.57
2022-10-06T18:21:47.738Z,12.49
2022-10-06T18:24:17.328Z,12.46
2022-10-06T18:26:48.235Z,12.39
2022-10-06T18:29:16.875Z,12.28
2022-10-06T18:31:45.157Z,12.09
2022-10-06T18:37:04.078Z,11.82
2022-10-06T18:39:33.635Z,11.74
2022-10-06T18:42:05.433Z,11.75
2022-10-06T18:44:53.113Z,11.75
2022-10-06T18:47:38.933Z,11.71
2022-10-06T18:50:07.629Z,11.69
2022-10-06T18:52:37.032Z,11.78
2022-10-06T18:55:05.219Z,11.86
2022-10-06T18:57:33.363Z,12.01
2022-10-06T19:00:01.310Z,12.06
2022-10-06T19:02:32.381Z,12.08
2022-10-06T19:05:00.504Z,12.05
2022-10-06T19:07:31.024Z,12.05
2022-10-06T19:10:00.519Z,12.03
2022-10-06T19:12:28.600Z,12.05
2022-10-06T19:14:57.879Z,12.02
2022-10-06T19:17:26.111Z,11.89
2022-10-06T19:19:55.471Z,11.91
2022-10-06T19:22:24.933Z,11.94
2022-10-06T19:24:52.906Z,12.01
2022-10-06T19:27:24.509Z,12.05
2022-10-06T19:29:53.334Z,12.16
2022-10-06T19:32:22.964Z,12.17
2022-10-06T19:34:50.947Z,12.12
2022-10-06T19:37:19.176Z,12.12
2022-10-06T19:39:48.245Z,12.20
2022-10-06T19:42:34.575Z,12.06
2022-10-06T19:45:05.186Z,12.10
2022-10-06T19:47:33.140Z,12.09
2022-10-06T19:50:05.969Z,12.14
2022-10-06T19:52:37.678Z,12.10
2022-10-06T19:55:06.322Z,12.02
2022-10-06T19:57:34.298Z,12.02
2022-10-06T20:00:02.191Z,12.03
2022-10-06T20:02:37.395Z,11.95
2022-10-06T20:05:08.332Z,12.01
2022-10-06T20:07:36.351Z,12.12
2022-10-06T20:10:04.580Z,11.95
2022-10-06T20:12:33.797Z,11.98
2022-10-06T20:15:02.029Z,12.05
2022-10-06T20:17:31.621Z,12.19
2022-10-06T20:20:02.139Z,12.14
2022-10-06T20:22:32.107Z,12.20
2022-10-06T20:25:02.788Z,12.18
2022-10-06T20:27:31.705Z,12.29
2022-10-06T20:29:59.860Z,12.33
2022-10-06T20:32:27.921Z,12.24
2022-10-06T20:34:56.213Z,12.29
2022-10-06T20:37:26.128Z,12.46
2022-10-06T20:40:11.942Z,12.31
2022-10-06T20:42:44.880Z,12.30
2022-10-06T20:45:13.182Z,12.31
2022-10-06T20:47:41.528Z,12.32
2022-10-06T20:50:10.329Z,12.32
2022-10-06T20:52:42.659Z,12.41
2022-10-06T20:55:10.957Z,12.45
2022-10-06T20:57:39.425Z,12.45
2022-10-06T21:00:08.171Z,12.50
2022-10-06T21:02:36.440Z,12.48
2022-10-06T21:05:04.797Z,12.32
2022-10-06T21:07:34.671Z,12.32
2022-10-06T21:10:04.138Z,12.37
2022-10-06T21:18:05.810Z,12.20
2022-10-06T21:20:35.405Z,12.19
2022-10-06T21:23:04.585Z,12.22
2022-10-06T21:25:37.029Z,12.25
2022-10-06T21:28:07.684Z,12.30
2022-10-06T21:30:36.475Z,12.34
2022-10-06T21:33:05.454Z,12.35
2022-10-06T21:35:33.810Z,12.43
2022-10-06T21:38:03.144Z,12.34
2022-10-06T21:40:31.590Z,12.14
2022-10-06T21:43:01.783Z,12.22
2022-10-06T21:45:33.183Z,12.13
2022-10-06T21:48:09.098Z,12.15
2022-10-06T21:50:40.751Z,12.03
2022-10-06T21:53:09.153Z,12.00
2022-10-06T21:55:37.336Z,12.06
2022-10-06T21:58:07.231Z,12.06
2022-10-06T22:00:35.526Z,11.95
2022-10-06T22:03:06.586Z,11.92
2022-10-06T22:05:35.317Z,11.94
2022-10-06T22:08:03.488Z,11.94
2022-10-06T22:10:32.683Z,11.84
2022-10-06T22:13:01.313Z,11.84
2022-10-06T22:15:31.589Z,11.76
2022-10-06T22:17:59.939Z,11.89
2022-10-06T22:20:28.133Z,11.91
2022-10-06T22:22:59.323Z,11.97
2022-10-06T22:25:29.669Z,12.03
2022-10-06T22:27:58.076Z,12.12
2022-10-06T22:30:26.606Z,12.05
2022-10-06T22:32:56.240Z,11.92
2022-10-06T22:35:24.619Z,11.91
2022-10-06T22:37:53.322Z,11.96
2022-10-06T22:40:21.967Z,11.93
2022-10-06T22:42:50.710Z,12.01
2022-10-06T22:45:19.492Z,12.00
2022-10-06T22:47:47.927Z,11.96
2022-10-06T22:50:18.029Z,11.99
2022-10-06T22:52:46.844Z,12.07
2022-10-06T22:55:15.019Z,12.04
2022-10-06T22:57:43.388Z,12.00
2022-10-06T23:00:12.233Z,12.00
2022-10-06T23:02:40.632Z,12.04
2022-10-06T23:05:08.999Z,12.06
2022-10-06T23:07:38.577Z,12.14
2022-10-06T23:10:07.380Z,12.19
2022-10-06T23:12:35.547Z,12.21
2022-10-06T23:15:03.916Z,12.15
2022-10-06T23:17:32.766Z,12.28
2022-10-06T23:20:01.031Z,12.14
2022-10-06T23:22:30.303Z,12.26
2022-10-06T23:25:00.101Z,12.19
2022-10-06T23:27:28.339Z,12.24
2022-10-06T23:29:57.009Z,12.15
2022-10-06T23:32:25.237Z,12.21
2022-10-06T23:34:54.453Z,12.17
2022-10-06T23:37:23.237Z,12.21
2022-10-06T23:39:51.679Z,12.24
2022-10-06T23:42:21.793Z,12.17
2022-10-06T23:44:50.149Z,12.23
2022-10-06T23:47:18.379Z,12.14
2022-10-06T23:49:46.807Z,12.09
2022-10-06T23:52:15.545Z,12.04
2022-10-06T23:54:44.640Z,12.15
2022-10-06T23:57:12.801Z,12.09
2022-10-06T23:59:42.525Z,12.19
